createdAt,value
2023-01-15T00:01:59.418Z,4.30
2023-01-15T00:04:27.162Z,2.60
2023-01-15T00:06:55.287Z,4.60
2023-01-15T00:09:23.304Z,5.40
2023-01-15T00:11:51.141Z,2.90
2023-01-15T00:14:18.952Z,2.90
2023-01-15T00:16:50.395Z,4.40
2023-01-15T00:19:18.472Z,2.90
2023-01-15T00:21:46.587Z,3.40
2023-01-15T00:24:33.102Z,3.70
2023-01-15T00:27:19.747Z,5.70
2023-01-15T00:29:47.621Z,3.40
2023-01-15T00:32:15.513Z,3.80
2023-01-15T00:34:43.283Z,2.80
2023-01-15T00:37:11.113Z,3.40
2023-01-15T00:39:39.231Z,3.50
2023-01-15T00:42:07.582Z,5.30
2023-01-15T00:44:35.771Z,4.50
2023-01-15T00:47:03.972Z,4.00
2023-01-15T00:49:31.751Z,3.40
2023-01-15T00:52:00.006Z,3.40
2023-01-15T00:54:27.829Z,4.50
2023-01-15T00:56:56.549Z,2.70
2023-01-15T00:59:24.504Z,3.90
2023-01-15T01:01:52.548Z,3.70
2023-01-15T01:04:21.888Z,3.30
2023-01-15T01:06:49.995Z,4.50
2023-01-15T01:09:17.790Z,3.40
2023-01-15T01:11:45.612Z,4.80
2023-01-15T01:14:13.307Z,4.40
2023-01-15T01:16:42.087Z,2.70
2023-01-15T01:19:11.751Z,2.10
2023-01-15T01:21:40.731Z,3.00
2023-01-15T01:24:10.356Z,3.60
2023-01-15T01:26:38.075Z,3.30
2023-01-15T01:29:05.834Z,3.10
2023-01-15T01:31:33.925Z,3.10
2023-01-15T01:34:02.061Z,2.70
2023-01-15T01:36:31.964Z,2.60
2023-01-15T01:39:00.121Z,3.70
2023-01-15T01:41:28.569Z,5.50
2023-01-15T01:44:03.628Z,3.70
2023-01-15T01:46:32.620Z,3.20
2023-01-15T01:49:10.774Z,3.90
2023-01-15T01:51:59.844Z,2.00
2023-01-15T01:54:30.105Z,2.20
2023-01-15T01:56:57.879Z,3.50
2023-01-15T01:59:26.239Z,3.20
2023-01-15T02:01:54.348Z,2.70
2023-01-15T02:04:22.927Z,4.70
2023-01-15T02:06:51.558Z,3.70
2023-01-15T02:09:19.270Z,3.30
2023-01-15T02:11:47.644Z,2.70
2023-01-15T02:14:18.436Z,3.50
2023-01-15T02:16:48.630Z,3.20
2023-01-15T02:19:29.419Z,3.00
2023-01-15T02:22:00.191Z,3.10
2023-01-15T02:24:27.916Z,2.80
2023-01-15T02:27:01.727Z,3.10
2023-01-15T02:29:41.468Z,2.00
2023-01-15T02:32:11.304Z,2.40
2023-01-15T02:34:43.595Z,3.20
2023-01-15T02:37:15.338Z,2.00
2023-01-15T02:39:45.471Z,3.10
2023-01-15T02:42:14.756Z,3.00
2023-01-15T02:44:45.418Z,2.70
2023-01-15T02:47:14.927Z,2.20
2023-01-15T02:49:44.255Z,3.90
2023-01-15T02:52:14.994Z,2.00
2023-01-15T02:54:44.987Z,2.60
2023-01-15T02:57:14.356Z,3.30
2023-01-15T02:59:44.084Z,1.40
2023-01-15T03:02:16.040Z,2.00
2023-01-15T03:04:47.614Z,1.90
2023-01-15T03:07:23.928Z,2.00
2023-01-15T03:09:53.382Z,3.30
2023-01-15T03:12:29.894Z,1.80
2023-01-15T03:15:06.710Z,5.50
2023-01-15T03:17:51.152Z,3.00
2023-01-15T03:20:25.161Z,1.70
2023-01-15T03:23:00.805Z,2.60
2023-01-15T03:25:31.328Z,3.40
2023-01-15T03:28:00.209Z,2.60
2023-01-15T03:30:28.462Z,2.70
2023-01-15T03:32:56.660Z,1.10
2023-01-15T03:35:39.819Z,3.00
2023-01-15T03:38:07.672Z,1.40
2023-01-15T03:40:37.388Z,2.20
2023-01-15T03:43:27.691Z,2.10
2023-01-15T03:45:56.640Z,2.00
2023-01-15T03:48:44.799Z,2.70
2023-01-15T03:51:22.916Z,1.70
2023-01-15T03:53:53.542Z,2.10
2023-01-15T03:56:40.184Z,2.20
2023-01-15T03:59:12.249Z,0.90
2023-01-15T04:01:42.230Z,2.80
2023-01-15T04:04:10.939Z,2.30
2023-01-15T04:06:40.361Z,2.20
2023-01-15T04:09:10.195Z,1.60
2023-01-15T04:11:38.349Z,1.60
2023-01-15T04:14:06.896Z,1.80
2023-01-15T04:16:35.091Z,2.50
2023-01-15T04:19:03.290Z,1.90
2023-01-15T04:21:31.321Z,0.80
2023-01-15T04:23:59.105Z,2.20
2023-01-15T04:26:27.081Z,1.80
2023-01-15T04:28:54.951Z,2.20
2023-01-15T04:31:22.981Z,1.50
2023-01-15T04:33:50.671Z,1.80
2023-01-15T04:36:18.407Z,2.60
2023-01-15T04:38:46.060Z,1.10
2023-01-15T04:41:32.714Z,1.40
2023-01-15T04:44:06.507Z,1.60
2023-01-15T04:46:42.143Z,1.10
2023-01-15T04:49:14.877Z,2.80
2023-01-15T04:51:43.305Z,2.20
2023-01-15T04:54:12.036Z,1.70
2023-01-15T04:56:51.175Z,2.10
2023-01-15T04:59:24.060Z,2.20
2023-01-15T05:02:03.088Z,1.50
2023-01-15T05:04:32.163Z,2.10
2023-01-15T05:07:01.150Z,1.30
2023-01-15T05:09:29.299Z,2.50
2023-01-15T05:11:57.143Z,2.80
2023-01-15T05:14:25.275Z,3.20
2023-01-15T05:16:53.223Z,2.00
2023-01-15T05:19:20.899Z,1.80
2023-01-15T05:21:49.152Z,3.20
2023-01-15T05:24:17.576Z,1.90
2023-01-15T05:26:45.656Z,1.90
2023-01-15T05:29:13.843Z,3.10
2023-01-15T05:31:42.782Z,2.20
2023-01-15T05:34:11.229Z,2.00
2023-01-15T05:36:39.806Z,1.70
2023-01-15T05:39:08.084Z,2.40
2023-01-15T05:41:51.820Z,2.60
2023-01-15T05:44:22.050Z,1.30
2023-01-15T05:46:50.623Z,2.60
2023-01-15T05:49:20.460Z,4.50
2023-01-15T05:51:49.170Z,1.60
2023-01-15T05:54:20.952Z,2.20
2023-01-15T05:56:49.323Z,3.00
2023-01-15T05:59:18.250Z,2.50
2023-01-15T06:01:46.836Z,1.80
2023-01-15T06:04:15.923Z,1.50
2023-01-15T06:06:43.808Z,1.40
2023-01-15T06:09:11.929Z,1.90
2023-01-15T06:11:40.228Z,2.60
2023-01-15T06:14:08.129Z,1.30
2023-01-15T06:16:36.074Z,2.20
2023-01-15T06:19:04.835Z,1.30
2023-01-15T06:21:33.472Z,1.30
2023-01-15T06:24:01.558Z,1.90
2023-01-15T06:26:29.359Z,2.30
2023-01-15T06:28:57.198Z,1.60
2023-01-15T06:31:28.742Z,3.00
2023-01-15T06:33:57.142Z,2.10
2023-01-15T06:36:26.066Z,3.40
2023-01-15T06:38:54.158Z,2.00
2023-01-15T06:41:42.199Z,2.40
2023-01-15T06:44:33.404Z,8.70
2023-01-15T06:47:21.955Z,3.00
2023-01-15T06:49:51.939Z,11.00
2023-01-15T06:52:20.856Z,6.80
2023-01-15T06:54:49.123Z,3.60
2023-01-15T06:57:19.118Z,4.40
2023-01-15T06:59:48.124Z,5.60
2023-01-15T07:02:17.943Z,3.10
2023-01-15T07:04:48.150Z,3.70
2023-01-15T07:07:17.180Z,3.00
2023-01-15T07:09:44.955Z,2.20
2023-01-15T07:12:12.843Z,2.30
2023-01-15T07:14:41.794Z,1.40
2023-01-15T07:17:13.588Z,2.30
2023-01-15T07:19:41.706Z,1.10
2023-01-15T07:22:09.981Z,2.50
2023-01-15T07:24:38.261Z,2.60
2023-01-15T07:27:06.395Z,2.30
2023-01-15T07:29:34.284Z,1.20
2023-01-15T07:32:02.319Z,2.30
2023-01-15T07:34:30.228Z,4.50
2023-01-15T07:36:58.159Z,2.10
2023-01-15T07:39:26.046Z,1.60
2023-01-15T07:42:12.742Z,1.90
2023-01-15T07:45:00.538Z,1.40
2023-01-15T07:47:47.345Z,1.30
2023-01-15T07:50:19.982Z,3.70
2023-01-15T07:52:47.797Z,2.80
2023-01-15T07:55:16.318Z,2.00
2023-01-15T07:57:44.723Z,0.90
2023-01-15T08:00:19.264Z,1.90
2023-01-15T08:02:49.930Z,4.00
2023-01-15T08:05:18.172Z,7.70
2023-01-15T08:07:46.002Z,3.70
2023-01-15T08:10:14.508Z,3.70
2023-01-15T08:13:00.966Z,1.40
2023-01-15T08:15:32.015Z,2.20
2023-01-15T08:17:59.818Z,1.00
2023-01-15T08:20:27.729Z,1.80
2023-01-15T08:22:55.650Z,1.40
2023-01-15T08:25:24.582Z,1.80
2023-01-15T08:27:52.875Z,1.70
2023-01-15T08:30:22.433Z,1.00
2023-01-15T08:32:51.392Z,2.10
2023-01-15T08:35:19.633Z,0.80
2023-01-15T08:37:48.932Z,1.30
2023-01-15T08:40:19.465Z,1.30
2023-01-15T08:42:47.569Z,2.50
2023-01-15T08:45:15.403Z,1.40
2023-01-15T08:47:43.204Z,1.60
2023-01-15T08:50:12.316Z,1.40
2023-01-15T08:52:41.921Z,1.50
2023-01-15T08:55:09.785Z,2.00
2023-01-15T08:57:38.732Z,3.20
2023-01-15T09:00:07.254Z,3.30
2023-01-15T09:02:35.269Z,13.60
2023-01-15T09:05:05.255Z,19.00
2023-01-15T09:07:35.646Z,7.70
2023-01-15T09:10:04.639Z,3.40
2023-01-15T09:12:32.910Z,38.90
2023-01-15T09:15:03.422Z,7.60
2023-01-15T09:17:33.156Z,2.90
2023-01-15T09:20:03.407Z,1.70
2023-01-15T09:22:31.489Z,3.10
2023-01-15T09:24:59.874Z,2.50
2023-01-15T09:27:28.213Z,3.30
2023-01-15T09:29:57.163Z,4.10
2023-01-15T09:32:25.689Z,2.50
2023-01-15T09:34:53.610Z,3.00
2023-01-15T09:37:21.792Z,2.90
2023-01-15T09:39:51.176Z,1.90
2023-01-15T09:42:19.307Z,2.00
2023-01-15T09:44:58.623Z,2.90
2023-01-15T09:47:42.257Z,2.70
2023-01-15T09:50:22.674Z,1.70
2023-01-15T09:52:51.426Z,1.70
2023-01-15T09:55:22.951Z,2.80
2023-01-15T09:57:54.843Z,2.70
2023-01-15T10:00:24.677Z,2.60
2023-01-15T10:02:56.990Z,2.80
2023-01-15T10:05:55.707Z,4.60
2023-01-15T10:08:29.174Z,2.90
2023-01-15T10:11:00.139Z,2.80
2023-01-15T10:13:31.311Z,2.30
2023-01-15T10:15:59.326Z,2.60
2023-01-15T10:18:28.413Z,3.70
2023-01-15T10:20:56.374Z,4.30
2023-01-15T10:23:39.568Z,4.90
2023-01-15T10:26:20.414Z,4.80
2023-01-15T10:28:59.990Z,2.30
2023-01-15T10:31:50.313Z,3.80
2023-01-15T10:34:24.370Z,2.20
2023-01-15T10:36:59.416Z,2.60
2023-01-15T10:39:32.689Z,2.90
2023-01-15T10:42:13.008Z,3.50
2023-01-15T10:44:41.218Z,4.20
2023-01-15T10:47:13.793Z,6.00
2023-01-15T10:49:43.633Z,6.50
2023-01-15T10:52:31.191Z,5.50
2023-01-15T10:55:09.478Z,4.50
2023-01-15T10:58:16.163Z,5.80
2023-01-15T11:00:47.179Z,7.30
2023-01-15T11:03:18.439Z,7.40
2023-01-15T11:05:47.210Z,9.80
2023-01-15T11:09:08.055Z,3.50
2023-01-15T11:11:21.017Z,3.30
2023-01-15T11:14:14.611Z,2.80
2023-01-15T11:17:02.362Z,4.50
2023-01-15T11:19:43.869Z,2.20
2023-01-15T11:22:18.447Z,1.50
2023-01-15T11:24:57.931Z,1.60
2023-01-15T11:27:27.307Z,1.50
2023-01-15T11:29:56.598Z,4.10
2023-01-15T11:32:35.159Z,4.90
2023-01-15T11:35:14.688Z,2.90
2023-01-15T11:37:43.069Z,1.90
2023-01-15T11:40:23.586Z,3.60
2023-01-15T11:43:24.419Z,6.20
2023-01-15T11:46:13.407Z,7.90
2023-01-15T11:49:04.323Z,8.30
2023-01-15T11:51:41.528Z,5.80
2023-01-15T11:54:15.219Z,5.40
2023-01-15T11:56:46.107Z,8.80
2023-01-15T11:59:18.196Z,15.30
2023-01-15T12:01:58.125Z,25.80
2023-01-15T12:04:29.576Z,13.10
2023-01-15T12:06:58.141Z,3.80
2023-01-15T12:09:44.090Z,5.30
2023-01-15T12:12:31.058Z,7.40
2023-01-15T12:15:14.028Z,8.10
2023-01-15T12:17:51.775Z,4.80
2023-01-15T12:20:29.222Z,3.20
2023-01-15T12:23:00.892Z,4.70
2023-01-15T12:25:55.297Z,5.70
2023-01-15T12:28:35.117Z,6.70
2023-01-15T12:31:13.506Z,6.30
2023-01-15T12:33:57.723Z,6.20
2023-01-15T12:36:39.651Z,5.30
2023-01-15T12:39:27.925Z,6.50
2023-01-15T12:42:19.259Z,6.50
2023-01-15T12:45:01.739Z,7.40
2023-01-15T12:47:50.813Z,7.20
2023-01-15T12:50:30.620Z,7.30
2023-01-15T12:53:01.434Z,8.20
2023-01-15T12:55:31.074Z,6.40
2023-01-15T12:58:01.407Z,4.40
2023-01-15T13:00:34.736Z,3.30
2023-01-15T13:03:10.650Z,2.80
2023-01-15T13:06:09.883Z,8.10
2023-01-15T13:08:47.658Z,4.30
2023-01-15T13:11:16.035Z,4.40
2023-01-15T13:13:59.758Z,6.50
2023-01-15T13:16:33.744Z,10.00
2023-01-15T13:19:02.488Z,9.00
2023-01-15T13:21:32.728Z,13.60
2023-01-15T13:24:08.978Z,16.00
2023-01-15T13:26:42.143Z,30.10
2023-01-15T13:29:13.047Z,21.80
2023-01-15T13:31:49.475Z,18.40
2023-01-15T13:34:20.962Z,12.80
2023-01-15T13:36:51.227Z,18.50
2023-01-15T13:39:22.985Z,18.20
2023-01-15T13:42:12.568Z,17.70
2023-01-15T13:44:47.586Z,7.20
2023-01-15T13:47:22.224Z,4.80
2023-01-15T13:49:53.116Z,4.60
2023-01-15T13:52:27.567Z,1.80
2023-01-15T13:55:00.496Z,5.30
2023-01-15T13:57:36.661Z,6.60
2023-01-15T14:00:06.578Z,7.30
2023-01-15T14:02:39.042Z,7.50
2023-01-15T14:05:33.426Z,14.10
2023-01-15T14:08:03.099Z,10.80
2023-01-15T14:10:31.567Z,6.60
2023-01-15T14:13:12.107Z,9.20
2023-01-15T14:15:47.231Z,9.90
2023-01-15T14:18:22.324Z,11.90
2023-01-15T14:20:56.356Z,9.50
2023-01-15T14:23:33.526Z,9.90
2023-01-15T14:26:07.728Z,13.50
2023-01-15T14:28:47.770Z,18.70
2023-01-15T14:31:42.196Z,24.90
2023-01-15T14:34:10.197Z,23.20
2023-01-15T14:36:46.697Z,19.40
2023-01-15T14:39:33.933Z,29.40
2023-01-15T14:44:55.581Z,13.50
2023-01-15T14:47:29.045Z,8.80
2023-01-15T14:50:02.195Z,11.30
2023-01-15T14:52:30.694Z,8.90
2023-01-15T14:55:00.129Z,13.60
2023-01-15T14:57:28.527Z,15.80
2023-01-15T15:00:04.112Z,12.20
2023-01-15T15:02:43.305Z,36.20
2023-01-15T15:05:15.160Z,19.00
2023-01-15T15:07:44.587Z,17.60
2023-01-15T15:10:25.285Z,26.30
2023-01-15T15:13:06.085Z,21.80
2023-01-15T15:15:55.571Z,20.30
2023-01-15T15:18:29.156Z,13.70
2023-01-15T15:20:57.434Z,8.00
2023-01-15T15:23:31.819Z,9.60
2023-01-15T15:26:01.972Z,29.10
2023-01-15T15:28:30.579Z,17.80
2023-01-15T15:31:03.341Z,7.40
2023-01-15T15:33:38.255Z,83.60
2023-01-15T15:36:08.698Z,31.90
2023-01-15T15:38:42.373Z,25.10
2023-01-15T15:41:12.410Z,11.30
2023-01-15T15:43:59.562Z,8.20
2023-01-15T15:46:49.559Z,10.60
2023-01-15T15:49:21.871Z,9.00
2023-01-15T15:51:52.934Z,11.50
2023-01-15T15:54:30.112Z,10.90
2023-01-15T15:57:00.485Z,7.60
2023-01-15T15:59:37.190Z,8.50
2023-01-15T16:02:16.612Z,7.50
2023-01-15T16:04:56.015Z,7.90
2023-01-15T16:07:34.234Z,6.90
2023-01-15T16:10:06.006Z,8.90
2023-01-15T16:12:40.905Z,6.70
2023-01-15T16:15:21.595Z,7.50
2023-01-15T16:17:51.342Z,6.90
2023-01-15T16:20:21.471Z,8.60
2023-01-15T16:22:53.533Z,10.10
2023-01-15T16:25:24.099Z,9.70
2023-01-15T16:27:52.430Z,10.10
2023-01-15T16:30:20.900Z,10.10
2023-01-15T16:32:51.159Z,8.10
2023-01-15T16:35:21.415Z,8.30
2023-01-15T16:37:52.257Z,10.40
2023-01-15T16:40:31.066Z,9.90
2023-01-15T16:43:24.152Z,9.20
2023-01-15T16:46:28.784Z,11.30
2023-01-15T16:49:16.160Z,10.70
2023-01-15T16:51:44.807Z,9.30
2023-01-15T16:54:31.605Z,11.30
2023-01-15T16:57:24.398Z,7.50
2023-01-15T16:59:57.683Z,11.00
2023-01-15T17:02:30.080Z,10.80
2023-01-15T17:04:58.703Z,10.40
2023-01-15T17:07:34.866Z,17.90
2023-01-15T17:10:03.958Z,15.00
2023-01-15T17:12:34.601Z,12.40
2023-01-15T17:15:15.183Z,13.50
2023-01-15T17:17:44.404Z,12.60
2023-01-15T17:20:13.661Z,14.00
2023-01-15T17:22:46.026Z,13.30
2023-01-15T17:25:40.721Z,14.50
2023-01-15T17:28:09.369Z,19.60
2023-01-15T17:30:37.707Z,22.20
2023-01-15T17:33:07.591Z,12.40
2023-01-15T17:35:37.508Z,14.10
2023-01-15T17:38:07.062Z,14.00
2023-01-15T17:40:35.702Z,15.90
2023-01-15T17:43:03.981Z,29.40
2023-01-15T17:45:36.347Z,37.20
2023-01-15T17:48:09.125Z,23.70
2023-01-15T17:50:38.698Z,14.00
2023-01-15T17:53:07.769Z,12.70
2023-01-15T17:55:54.440Z,15.30
2023-01-15T17:58:41.932Z,14.30
2023-01-15T18:04:16.873Z,16.80
2023-01-15T18:09:15.354Z,11.90
2023-01-15T18:11:47.752Z,9.50
2023-01-15T18:14:17.124Z,10.10
2023-01-15T18:16:45.677Z,9.70
2023-01-15T18:19:17.679Z,8.40
2023-01-15T18:21:46.816Z,6.50
2023-01-15T18:24:17.340Z,6.60
2023-01-15T18:26:45.536Z,7.10
2023-01-15T18:29:13.893Z,7.60
2023-01-15T18:31:42.333Z,6.50
2023-01-15T18:34:11.304Z,5.90
2023-01-15T18:36:42.358Z,7.40
2023-01-15T18:39:13.752Z,7.10
2023-01-15T18:41:41.920Z,5.80
2023-01-15T18:44:36.361Z,6.50
2023-01-15T18:47:15.570Z,5.30
2023-01-15T18:49:46.376Z,6.10
2023-01-15T18:52:35.942Z,6.00
2023-01-15T18:55:04.770Z,4.80
2023-01-15T18:57:34.902Z,4.20
2023-01-15T19:00:06.320Z,5.10
2023-01-15T19:02:35.228Z,5.80
2023-01-15T19:05:03.884Z,5.70
2023-01-15T19:07:33.396Z,3.10
2023-01-15T19:10:01.361Z,5.40
2023-01-15T19:12:29.735Z,5.60
2023-01-15T19:15:16.545Z,4.90
2023-01-15T19:18:03.352Z,3.90
2023-01-15T19:20:33.658Z,3.80
2023-01-15T19:23:06.884Z,4.30
2023-01-15T19:25:39.688Z,5.60
2023-01-15T19:28:09.369Z,5.00
2023-01-15T19:30:39.408Z,5.40
2023-01-15T19:33:08.778Z,6.40
2023-01-15T19:35:39.023Z,5.00
2023-01-15T19:38:11.120Z,4.10
2023-01-15T19:40:41.075Z,3.40
2023-01-15T19:43:28.716Z,4.50
2023-01-15T19:46:16.008Z,5.10
2023-01-15T19:49:03.535Z,3.60
2023-01-15T19:51:51.080Z,4.30
2023-01-15T19:54:39.732Z,6.10
2023-01-15T19:57:08.413Z,3.50
2023-01-15T19:59:37.720Z,4.20
2023-01-15T20:02:06.605Z,3.80
2023-01-15T20:04:36.829Z,5.30
2023-01-15T20:07:05.274Z,8.30
2023-01-15T20:09:33.381Z,7.70
2023-01-15T20:12:20.339Z,8.10
2023-01-15T20:14:48.770Z,7.80
2023-01-15T20:17:18.002Z,7.80
2023-01-15T20:19:46.350Z,7.30
2023-01-15T20:22:15.864Z,4.70
2023-01-15T20:24:44.644Z,5.00
2023-01-15T20:27:14.969Z,3.80
2023-01-15T20:29:45.743Z,3.80
2023-01-15T20:32:14.304Z,5.40
2023-01-15T20:34:43.471Z,3.00
2023-01-15T20:37:11.441Z,3.00
2023-01-15T20:39:39.512Z,4.80
2023-01-15T20:42:26.410Z,2.60
2023-01-15T20:44:55.219Z,3.90
2023-01-15T20:47:42.847Z,3.20
2023-01-15T20:50:15.533Z,2.90
2023-01-15T20:52:48.516Z,3.50
2023-01-15T20:55:17.204Z,3.50
2023-01-15T20:57:46.233Z,4.40
2023-01-15T21:00:16.589Z,3.80
2023-01-15T21:02:44.707Z,2.90
2023-01-15T21:05:13.994Z,3.90
2023-01-15T21:07:43.700Z,3.80
2023-01-15T21:10:14.807Z,3.30
2023-01-15T21:12:44.723Z,4.10
2023-01-15T21:15:13.451Z,2.20
2023-01-15T21:17:41.499Z,4.10
2023-01-15T21:20:14.563Z,2.70
2023-01-15T21:22:43.659Z,3.20
2023-01-15T21:25:13.363Z,3.80
2023-01-15T21:27:41.668Z,4.30
2023-01-15T21:30:10.666Z,3.90
2023-01-15T21:32:39.038Z,3.70
2023-01-15T21:35:07.646Z,3.30
2023-01-15T21:37:36.121Z,2.70
2023-01-15T21:40:04.936Z,2.30
2023-01-15T21:42:51.594Z,2.60
2023-01-15T21:45:20.174Z,2.50
2023-01-15T21:47:48.864Z,3.80
2023-01-15T21:50:18.192Z,3.40
2023-01-15T21:52:48.568Z,2.10
2023-01-15T21:55:16.872Z,3.50
2023-01-15T21:57:45.139Z,5.80
2023-01-15T22:00:16.881Z,4.30
2023-01-15T22:02:44.726Z,3.20
2023-01-15T22:05:12.828Z,3.80
2023-01-15T22:07:41.003Z,5.50
2023-01-15T22:10:10.235Z,4.90
2023-01-15T22:12:43.260Z,4.00
2023-01-15T22:15:12.207Z,3.80
2023-01-15T22:17:40.061Z,4.10
2023-01-15T22:20:08.644Z,6.70
2023-01-15T22:22:40.929Z,5.60
2023-01-15T22:25:11.669Z,4.90
2023-01-15T22:27:41.956Z,3.80
2023-01-15T22:30:10.944Z,2.60
2023-01-15T22:32:39.169Z,4.60
2023-01-15T22:35:08.087Z,3.10
2023-01-15T22:37:36.194Z,5.20
2023-01-15T22:40:05.545Z,3.50
2023-01-15T22:42:33.963Z,4.60
2023-01-15T22:45:04.189Z,5.30
2023-01-15T22:47:32.456Z,4.00
2023-01-15T22:50:02.690Z,4.60
2023-01-15T22:52:31.018Z,5.20
2023-01-15T22:54:59.025Z,3.80
2023-01-15T22:57:27.211Z,2.90
2023-01-15T22:59:55.208Z,3.40
2023-01-15T23:02:43.513Z,6.40
2023-01-15T23:05:12.738Z,3.10
2023-01-15T23:07:41.601Z,4.60
2023-01-15T23:10:11.310Z,2.70
2023-01-15T23:12:39.682Z,4.10
2023-01-15T23:15:09.616Z,3.50
2023-01-15T23:17:37.673Z,4.90
2023-01-15T23:20:07.139Z,4.50
2023-01-15T23:22:35.651Z,7.50
2023-01-15T23:25:04.463Z,6.00
2023-01-15T23:27:32.925Z,6.80
2023-01-15T23:30:00.989Z,4.30
2023-01-15T23:32:29.160Z,6.00
2023-01-15T23:34:57.736Z,5.80
2023-01-15T23:37:25.712Z,3.60
2023-01-15T23:39:53.908Z,5.20
2023-01-15T23:42:43.759Z,7.00
2023-01-15T23:45:31.434Z,4.80
2023-01-15T23:47:59.492Z,4.50
2023-01-15T23:50:30.489Z,6.30
2023-01-15T23:52:58.476Z,5.30
2023-01-15T23:55:26.392Z,5.60
2023-01-15T23:57:54.469Z,5.40
